Time;durP1;ratioP1;P1;durP2;ratioP2;P2;SDS_P1;SDS_P2;PMS_P1;PMS_P2;Temp;Humidity;BMP_temperature;BMP_pressure;BME280_temperature;BME280_humidity;BME280_pressure;Samples;Min_cycle;Max_cycle;Signal;HPM_P1;HPM_P2
2022/06/05 00:01:42;;;;;;;25.77;16.87;;;19.60;99.90;;;;;;5041161;28;20549;-79
2022/06/05 00:04:10;;;;;;;23.83;15.13;;;19.50;99.90;;;;;;5019040;28;20204;-79
2022/06/05 00:07:04;;;;;;;19.43;14.63;;;19.50;99.90;;;;;;5032981;28;20438;-79
2022/06/05 00:09:50;;;;;;;22.03;14.77;;;19.40;99.90;;;;;;5037127;28;20450;-78
2022/06/05 00:12:18;;;;;;;24.03;15.20;;;19.40;99.90;;;;;;5037808;28;20436;-78
2022/06/05 00:14:44;;;;;;;25.77;15.73;;;19.40;99.90;;;;;;5029645;28;20419;-78
2022/06/05 00:17:17;;;;;;;21.80;14.40;;;19.30;99.90;;;;;;5043013;28;20418;-77
2022/06/05 00:19:45;;;;;;;26.90;16.37;;;19.30;99.90;;;;;;5040814;28;20442;-78
2022/06/05 00:22:11;;;;;;;24.63;16.23;;;19.30;99.90;;;;;;5026828;28;20505;-77
2022/06/05 00:24:37;;;;;;;33.43;17.80;;;19.30;99.90;;;;;;5038181;28;20481;-78
2022/06/05 00:27:28;;;;;;;19.13;13.77;;;19.30;99.90;;;;;;5041852;28;20238;-79
2022/06/05 00:30:17;;;;;;;19.47;15.00;;;19.20;99.90;;;;;;5031325;28;20202;-79
2022/06/05 00:33:06;;;;;;;18.07;13.40;;;19.10;99.90;;;;;;5028284;28;20419;-78
2022/06/05 00:35:40;;;;;;;21.70;15.20;;;19.10;99.90;;;;;;5028599;28;20429;-78
2022/06/05 00:38:14;;;;;;;21.63;16.17;;;19.00;99.90;;;;;;5028673;28;20415;-78
2022/06/05 00:41:17;;;;;;;26.50;17.77;;;19.00;99.90;;;;;;5022887;28;20470;-77
2022/06/05 00:43:43;;;;;;;24.43;18.00;;;19.00;99.90;;;;;;5022349;28;20892;-78
2022/06/05 00:46:09;;;;;;;25.77;18.90;;;19.00;99.90;;;;;;5025700;28;20407;-78
2022/06/05 00:48:35;;;;;;;17.53;13.80;;;19.00;99.90;;;;;;5010073;28;20809;-78
2022/06/05 00:51:00;;;;;;;23.27;16.87;;;19.00;99.90;;;;;;5015048;28;20652;-77
2022/06/05 00:53:26;;;;;;;26.83;17.93;;;18.90;99.90;;;;;;5024264;28;20206;-79
2022/06/05 00:55:53;;;;;;;188.33;178.37;;;18.90;99.90;;;;;;5029891;28;20178;-78
2022/06/05 00:58:20;;;;;;;396.13;380.30;;;18.90;99.90;;;;;;5026641;28;20701;-78
2022/06/05 01:00:52;;;;;;;101.30;93.40;;;18.80;99.90;;;;;;5025152;28;20533;-79
2022/06/05 01:03:20;;;;;;;16.37;12.70;;;18.90;99.90;;;;;;5029821;28;20453;-78
2022/06/05 01:05:45;;;;;;;49.70;46.07;;;18.90;99.90;;;;;;5026379;28;20479;-78
2022/06/05 01:08:12;;;;;;;129.93;122.67;;;18.90;99.90;;;;;;5021545;28;20482;-78
2022/06/05 01:10:49;;;;;;;72.87;68.20;;;18.90;99.90;;;;;;5025400;28;20239;-78
2022/06/05 01:13:38;;;;;;;14.50;12.50;;;18.90;99.90;;;;;;5028741;28;20418;-78
2022/06/05 01:16:23;;;;;;;20.87;14.70;;;18.80;99.90;;;;;;5031839;28;20407;-79
2022/06/05 01:19:13;;;;;;;17.80;14.57;;;18.90;99.90;;;;;;5025303;28;20458;-79
2022/06/05 01:22:13;;;;;;;14.67;12.37;;;18.90;99.90;;;;;;5023280;28;20535;-78
2022/06/05 01:25:08;;;;;;;15.93;13.40;;;18.90;99.90;;;;;;5022200;28;20423;-78
2022/06/05 01:27:39;;;;;;;24.33;15.43;;;18.90;99.90;;;;;;5025355;28;20422;-78
2022/06/05 01:30:22;;;;;;;16.30;13.83;;;18.90;99.90;;;;;;5025426;28;20440;-78
2022/06/05 01:33:09;;;;;;;14.63;13.10;;;18.90;99.90;;;;;;5018032;28;20406;-78
2022/06/05 01:35:57;;;;;;;18.30;13.63;;;18.90;99.90;;;;;;5022845;28;20417;-78
2022/06/05 01:38:33;;;;;;;21.23;15.27;;;18.90;99.90;;;;;;5023362;28;20415;-78
2022/06/05 01:41:06;;;;;;;18.30;13.77;;;18.80;99.90;;;;;;5024151;28;20784;-79
2022/06/05 01:43:35;;;;;;;16.23;13.23;;;18.80;99.90;;;;;;5020688;28;20434;-78
2022/06/05 01:46:00;;;;;;;17.27;13.83;;;18.90;99.90;;;;;;5024054;28;20509;-78
2022/06/05 01:48:37;;;;;;;15.60;13.40;;;18.90;99.90;;;;;;5021515;28;20465;-78
2022/06/05 01:51:07;;;;;;;90.40;83.07;;;18.90;99.90;;;;;;5024064;28;20217;-78
2022/06/05 01:53:39;;;;;;;113.40;104.17;;;18.90;99.90;;;;;;5021118;28;20424;-79
2022/06/05 01:56:14;;;;;;;54.60;50.00;;;18.80;99.90;;;;;;5023241;28;20508;-78
2022/06/05 01:58:44;;;;;;;293.10;277.67;;;18.80;99.90;;;;;;5022529;28;20460;-78
2022/06/05 02:01:20;;;;;;;21.10;15.17;;;18.90;99.90;;;;;;5024338;28;20472;-77
2022/06/05 02:03:54;;;;;;;16.33;14.00;;;18.90;99.90;;;;;;5017560;28;20417;-79
2022/06/05 02:06:33;;;;;;;19.87;15.00;;;18.90;99.90;;;;;;5027334;28;20420;-78
2022/06/05 02:09:31;;;;;;;14.87;12.60;;;18.80;99.90;;;;;;5022687;28;20473;-78
2022/06/05 02:11:58;;;;;;;19.63;14.50;;;18.80;99.90;;;;;;5019268;28;20474;-79
2022/06/05 02:14:25;;;;;;;22.83;16.23;;;18.80;99.90;;;;;;5026250;28;20915;-78
2022/06/05 02:16:51;;;;;;;18.10;14.53;;;18.80;99.90;;;;;;5027663;28;20428;-78
2022/06/05 02:19:19;;;;;;;22.90;17.17;;;18.90;99.90;;;;;;5025675;28;20874;-78
2022/06/05 02:21:45;;;;;;;21.60;18.00;;;18.90;99.90;;;;;;5024745;28;20679;-78
2022/06/05 02:24:12;;;;;;;26.20;16.67;;;18.80;99.90;;;;;;5025807;28;20423;-78
2022/06/05 02:26:38;;;;;;;22.87;15.73;;;18.80;99.90;;;;;;5026317;28;20187;-78
2022/06/05 02:29:10;;;;;;;22.17;16.67;;;18.70;99.90;;;;;;5029286;28;20529;-78
2022/06/05 02:32:11;;;;;;;19.20;14.37;;;18.80;99.90;;;;;;5025291;28;20422;-78
2022/06/05 02:34:49;;;;;;;26.83;17.87;;;18.70;99.90;;;;;;5016916;28;20427;-77
2022/06/05 02:37:34;;;;;;;20.00;14.27;;;18.70;99.90;;;;;;5033350;28;20425;-78
2022/06/05 02:40:03;;;;;;;26.80;18.73;;;18.70;99.90;;;;;;5022154;28;20430;-78
2022/06/05 02:42:35;;;;;;;315.77;301.13;;;18.70;99.90;;;;;;5025270;28;20465;-78
2022/06/05 02:45:09;;;;;;;157.00;150.83;;;18.60;99.90;;;;;;5027508;28;21030;-78
2022/06/05 02:47:49;;;;;;;76.33;72.77;;;18.60;99.90;;;;;;5026663;28;20425;-78
2022/06/05 02:50:34;;;;;;;286.30;276.37;;;18.60;99.90;;;;;;5027986;28;20452;-78
2022/06/05 02:53:02;;;;;;;200.87;192.83;;;18.60;99.90;;;;;;5016374;28;20418;-78
2022/06/05 02:55:29;;;;;;;338.43;325.93;;;18.60;99.90;;;;;;5026843;28;20420;-78
2022/06/05 02:57:54;;;;;;;402.00;385.93;;;18.50;99.90;;;;;;5017475;28;20506;-78
2022/06/05 03:00:23;;;;;;;414.43;396.87;;;18.50;99.90;;;;;;5019539;28;20545;-78
2022/06/05 03:05:34;;;;;;;367.63;343.27;;;18.50;99.90;;;;;;5026217;28;20537;-79
2022/06/05 03:07:59;;;;;;;252.13;233.63;;;18.50;99.90;;;;;;5050063;28;20432;-79
2022/06/05 03:10:26;;;;;;;16.70;14.53;;;18.40;99.90;;;;;;5046934;28;20461;-78
2022/06/05 03:12:51;;;;;;;23.80;21.33;;;18.30;99.90;;;;;;5030401;28;20183;-79
2022/06/05 03:15:17;;;;;;;343.20;322.83;;;18.40;99.90;;;;;;5030261;28;20559;-79
2022/06/05 03:17:44;;;;;;;224.10;206.77;;;18.30;99.90;;;;;;5028372;28;20190;-78
2022/06/05 03:20:11;;;;;;;23.70;16.43;;;18.30;99.90;;;;;;5030726;28;20294;-79
2022/06/05 03:22:37;;;;;;;297.87;280.93;;;18.30;99.90;;;;;;5026217;28;20471;-78
2022/06/05 03:25:04;;;;;;;55.27;49.73;;;18.30;99.90;;;;;;5029977;28;20422;-78
2022/06/05 03:27:31;;;;;;;90.27;84.20;;;18.30;99.90;;;;;;5030434;28;20664;-78
2022/06/05 03:29:57;;;;;;;17.30;12.50;;;18.30;99.90;;;;;;5029437;28;20477;-78
2022/06/05 03:32:24;;;;;;;275.57;258.60;;;18.30;99.90;;;;;;5030903;28;20830;-78
2022/06/05 03:34:49;;;;;;;273.40;257.10;;;18.30;99.90;;;;;;5026636;28;20463;-78
2022/06/05 03:37:15;;;;;;;368.77;347.10;;;18.40;99.90;;;;;;5027538;28;20494;-78
2022/06/05 03:39:41;;;;;;;392.83;376.53;;;18.30;99.90;;;;;;5033464;28;20213;-78
2022/06/05 03:42:09;;;;;;;324.17;303.57;;;18.40;99.90;;;;;;5027887;28;20219;-78
2022/06/05 03:44:37;;;;;;;61.27;55.47;;;18.30;99.90;;;;;;5032132;28;20187;-79
2022/06/05 03:47:02;;;;;;;27.77;24.73;;;18.40;99.90;;;;;;5026024;28;20419;-79
2022/06/05 03:49:28;;;;;;;12.17;11.03;;;18.50;99.90;;;;;;5028403;28;20527;-79
2022/06/05 03:51:53;;;;;;;18.10;12.60;;;18.50;99.90;;;;;;5029469;28;20225;-78
2022/06/05 03:54:19;;;;;;;143.57;135.77;;;18.50;99.90;;;;;;5037566;28;20190;-79
2022/06/05 03:56:45;;;;;;;296.43;276.57;;;18.50;99.90;;;;;;5028851;28;20184;-78
2022/06/05 03:59:10;;;;;;;363.67;345.63;;;18.60;99.90;;;;;;5027928;28;20207;-78
2022/06/05 04:01:36;;;;;;;435.00;413.33;;;18.60;99.90;;;;;;5034328;28;20233;-79
2022/06/05 04:04:02;;;;;;;228.87;213.47;;;18.60;99.90;;;;;;5023111;28;20218;-79
2022/06/05 04:06:29;;;;;;;225.83;209.03;;;18.60;99.90;;;;;;5035462;28;20262;-79
2022/06/05 04:08:57;;;;;;;180.33;166.77;;;18.60;99.90;;;;;;5030840;28;20447;-79
2022/06/05 04:11:23;;;;;;;73.10;67.17;;;18.60;99.90;;;;;;5037678;28;20449;-78
2022/06/05 04:13:49;;;;;;;47.63;43.47;;;18.70;99.90;;;;;;5026661;28;20837;-79
2022/06/05 04:16:23;;;;;;;20.57;14.33;;;18.70;99.90;;;;;;5029309;28;20450;-79
2022/06/05 04:18:50;;;;;;;24.33;20.97;;;18.80;99.90;;;;;;5024036;28;20459;-79
2022/06/05 04:21:22;;;;;;;369.27;350.80;;;18.80;99.90;;;;;;5031867;28;20505;-79
2022/06/05 04:23:48;;;;;;;399.40;378.23;;;18.90;99.90;;;;;;5027511;28;20423;-79
2022/06/05 04:26:16;;;;;;;72.77;66.80;;;18.80;99.90;;;;;;5033421;28;20418;-79
2022/06/05 04:28:42;;;;;;;295.83;278.93;;;18.90;99.90;;;;;;5048711;28;20482;-78
2022/06/05 04:31:27;;;;;;;346.40;325.67;;;18.80;99.90;;;;;;5041190;28;20433;-79
2022/06/05 04:33:56;;;;;;;210.10;194.30;;;18.90;99.90;;;;;;5030223;28;20421;-78
2022/06/05 04:36:22;;;;;;;165.53;152.27;;;18.90;99.90;;;;;;5036632;28;20428;-78
2022/06/05 04:38:48;;;;;;;224.10;208.77;;;18.90;99.90;;;;;;5033046;28;20501;-79
2022/06/05 04:41:14;;;;;;;155.70;148.50;;;18.90;99.90;;;;;;5029154;28;20484;-78
2022/06/05 04:43:40;;;;;;;17.47;12.63;;;19.50;99.90;;;;;;5009543;28;20200;-79
2022/06/05 04:46:06;;;;;;;228.83;214.43;;;18.90;99.90;;;;;;5029955;28;21044;-79
2022/06/05 04:48:32;;;;;;;55.43;50.37;;;18.90;99.90;;;;;;5033080;28;20484;-79
2022/06/05 04:50:58;;;;;;;24.23;14.07;;;19.00;99.90;;;;;;5034267;28;20786;-79
2022/06/05 04:53:24;;;;;;;18.57;13.13;;;19.00;99.90;;;;;;5025467;28;20518;-79
2022/06/05 04:55:50;;;;;;;15.90;12.10;;;19.00;99.90;;;;;;5034961;28;20434;-78
2022/06/05 04:58:16;;;;;;;18.40;13.00;;;19.00;99.90;;;;;;5035561;28;20610;-78
2022/06/05 05:00:41;;;;;;;23.63;14.20;;;19.00;99.90;;;;;;5032566;28;20489;-79
2022/06/05 05:03:08;;;;;;;18.10;13.43;;;19.00;99.90;;;;;;5025187;28;20184;-78
2022/06/05 05:05:34;;;;;;;16.40;12.17;;;19.10;99.90;;;;;;5025698;28;20194;-79
2022/06/05 05:08:00;;;;;;;19.03;13.67;;;19.00;99.90;;;;;;5028879;28;20426;-78
2022/06/05 05:10:26;;;;;;;19.00;13.53;;;19.10;99.90;;;;;;5026162;28;20496;-78
2022/06/05 05:12:52;;;;;;;18.47;12.20;;;19.00;99.90;;;;;;5028439;28;20953;-78
2022/06/05 05:15:18;;;;;;;247.83;233.10;;;19.10;99.90;;;;;;5027487;28;20222;-79
2022/06/05 05:17:44;;;;;;;161.03;148.93;;;;;;;;;;5025365;28;20417;-78
2022/06/05 05:20:10;;;;;;;244.13;229.07;;;19.20;99.90;;;;;;5027599;28;20730;-78
2022/06/05 05:22:37;;;;;;;221.97;211.43;;;19.20;99.90;;;;;;5024273;28;20982;-78
2022/06/05 05:25:06;;;;;;;319.53;304.90;;;19.30;99.90;;;;;;5029905;28;20994;-79
2022/06/05 05:27:32;;;;;;;427.83;405.67;;;19.30;99.90;;;;;;5028921;28;20425;-78
2022/06/05 05:29:58;;;;;;;266.33;256.90;;;;;;;;;;5027769;28;20438;-79
2022/06/05 05:32:24;;;;;;;239.40;222.30;;;19.20;99.90;;;;;;5028007;28;20445;-78
2022/06/05 05:34:49;;;;;;;261.70;242.60;;;19.10;99.90;;;;;;5024506;28;20190;-79
2022/06/05 05:37:15;;;;;;;180.60;166.77;;;19.20;99.90;;;;;;5033577;28;20203;-79
2022/06/05 05:42:25;;;;;;;334.73;315.23;;;19.30;99.90;;;;;;5028150;28;20265;-78
2022/06/05 05:44:51;;;;;;;195.40;182.10;;;19.20;99.90;;;;;;5041890;28;20453;-79
2022/06/05 05:47:22;;;;;;;170.77;157.87;;;19.20;99.90;;;;;;5034646;28;20228;-78
2022/06/05 05:49:56;;;;;;;176.00;162.87;;;19.20;99.90;;;;;;5027251;28;20435;-79
2022/06/05 05:52:22;;;;;;;185.33;172.77;;;19.20;99.90;;;;;;5028278;28;20441;-78
2022/06/05 05:54:48;;;;;;;173.17;160.13;;;19.30;99.90;;;;;;5023726;28;21019;-79
2022/06/05 05:57:14;;;;;;;178.87;165.50;;;19.10;99.90;;;;;;5039508;28;20414;-79
2022/06/05 05:59:40;;;;;;;290.53;273.63;;;19.20;99.90;;;;;;5050562;28;20458;-79
2022/06/05 06:02:11;;;;;;;354.40;334.83;;;19.20;99.90;;;;;;5036436;28;20592;-78
2022/06/05 06:04:37;;;;;;;329.47;309.13;;;19.20;99.90;;;;;;5030022;28;20210;-78
2022/06/05 06:07:03;;;;;;;316.07;301.43;;;19.20;99.90;;;;;;5033015;28;20430;-78
2022/06/05 06:09:29;;;;;;;20.50;15.13;;;19.10;99.90;;;;;;5024284;28;20856;-78
2022/06/05 06:11:54;;;;;;;318.27;301.87;;;19.10;99.90;;;;;;5035222;28;20636;-79
2022/06/05 06:14:20;;;;;;;300.17;282.47;;;19.10;99.90;;;;;;5028267;28;20188;-78
2022/06/05 06:16:45;;;;;;;274.07;258.67;;;19.00;99.90;;;;;;5031851;28;20329;-78
2022/06/05 06:19:11;;;;;;;60.17;55.67;;;19.00;99.90;;;;;;5032831;28;20231;-79
2022/06/05 06:21:37;;;;;;;197.40;188.73;;;;;;;;;;5026796;28;20227;-79
2022/06/05 06:24:03;;;;;;;170.33;159.17;;;;;;;;;;5027953;28;20590;-78
2022/06/05 06:26:28;;;;;;;230.37;214.70;;;19.00;99.90;;;;;;5030625;28;20539;-78
2022/06/05 06:28:54;;;;;;;30.03;26.93;;;19.00;99.90;;;;;;5031767;28;20437;-79
2022/06/05 06:31:20;;;;;;;27.40;18.17;;;19.00;99.90;;;;;;5021698;28;20195;-79
2022/06/05 06:33:48;;;;;;;24.90;17.40;;;19.00;99.90;;;;;;5030929;28;20666;-78
2022/06/05 06:36:15;;;;;;;279.47;266.10;;;18.80;99.90;;;;;;5026177;28;20188;-78
2022/06/05 06:38:40;;;;;;;16.90;14.33;;;19.00;99.90;;;;;;5032353;28;20492;-79
2022/06/05 06:41:08;;;;;;;186.67;178.07;;;19.00;99.90;;;;;;5030690;28;20527;-79
2022/06/05 06:43:34;;;;;;;179.13;171.13;;;19.20;99.90;;;;;;5029282;28;20242;-78
2022/06/05 06:46:00;;;;;;;44.97;41.70;;;19.20;99.90;;;;;;5030757;28;20430;-79
2022/06/05 06:48:28;;;;;;;85.00;79.70;;;19.30;99.90;;;;;;5030803;28;20533;-78
2022/06/05 06:50:55;;;;;;;36.67;26.13;;;19.30;99.90;;;;;;5034502;28;20441;-78
2022/06/05 06:53:21;;;;;;;31.87;28.63;;;19.20;99.90;;;;;;5030307;28;20914;-78
2022/06/05 06:55:47;;;;;;;21.27;15.00;;;19.20;99.90;;;;;;5020534;28;20487;-78
2022/06/05 06:58:13;;;;;;;22.60;16.40;;;19.10;99.90;;;;;;5039978;28;20425;-79
2022/06/05 07:00:39;;;;;;;66.63;63.10;;;19.10;99.90;;;;;;5028099;28;20815;-78
2022/06/05 07:03:05;;;;;;;60.80;56.87;;;19.10;99.90;;;;;;5022889;28;20233;-78
2022/06/05 07:05:31;;;;;;;32.50;29.43;;;19.10;99.90;;;;;;5025005;28;20797;-78
2022/06/05 07:07:57;;;;;;;55.17;51.30;;;19.10;99.90;;;;;;5028407;28;20432;-78
2022/06/05 07:10:22;;;;;;;77.97;73.13;;;19.10;99.90;;;;;;5021087;28;20880;-78
2022/06/05 07:12:48;;;;;;;271.43;256.60;;;19.10;99.90;;;;;;5028457;28;20235;-78
2022/06/05 07:15:14;;;;;;;69.53;64.87;;;19.00;99.90;;;;;;5031103;28;20187;-78
2022/06/05 07:17:40;;;;;;;20.33;16.70;;;19.00;99.90;;;;;;5023998;28;20422;-78
2022/06/05 07:20:07;;;;;;;25.03;17.00;;;18.90;99.90;;;;;;5026319;28;20433;-78
2022/06/05 07:22:33;;;;;;;26.10;23.57;;;18.90;99.90;;;;;;5022241;28;21215;-78
2022/06/05 07:24:59;;;;;;;103.57;97.93;;;18.90;99.90;;;;;;5023427;28;20419;-78
2022/06/05 07:27:25;;;;;;;59.23;55.37;;;19.00;99.90;;;;;;5027030;28;20414;-78
2022/06/05 07:29:51;;;;;;;25.30;19.87;;;19.10;99.90;;;;;;5026954;28;20199;-78
2022/06/05 07:32:17;;;;;;;26.73;23.93;;;19.10;99.90;;;;;;5020735;28;20418;-78
2022/06/05 07:34:43;;;;;;;25.33;18.87;;;19.20;99.90;;;;;;5024972;28;20215;-78
2022/06/05 07:37:08;;;;;;;73.20;68.70;;;19.30;99.90;;;;;;5031163;28;20440;-78
2022/06/05 07:39:34;;;;;;;325.00;310.03;;;19.40;99.90;;;;;;5024810;28;20203;-78
2022/06/05 07:42:00;;;;;;;383.67;361.43;;;19.40;99.90;;;;;;5024065;28;20203;-78
2022/06/05 07:44:26;;;;;;;301.47;283.80;;;19.50;99.90;;;;;;5028547;28;20179;-77
2022/06/05 07:46:52;;;;;;;214.40;202.47;;;19.50;99.90;;;;;;5023947;28;20656;-78
2022/06/05 07:49:18;;;;;;;170.80;162.93;;;19.60;99.90;;;;;;5031188;28;20460;-77
2022/06/05 07:54:31;;;;;;;21.67;15.77;;;19.70;99.90;;;;;;5030605;28;20217;-77
2022/06/05 07:57:05;;;;;;;25.57;19.90;;;19.70;99.90;;;;;;5023488;28;20919;-78
2022/06/05 07:59:34;;;;;;;82.30;77.23;;;19.80;99.90;;;;;;5024015;28;20438;-77
2022/06/05 08:02:03;;;;;;;58.13;54.50;;;19.80;99.90;;;;;;5026291;28;20474;-78
2022/06/05 08:04:30;;;;;;;39.53;36.37;;;19.90;99.90;;;;;;5023514;28;20423;-78
2022/06/05 08:06:57;;;;;;;24.30;22.10;;;19.90;99.90;;;;;;5028641;28;20422;-78
2022/06/05 08:09:24;;;;;;;236.37;226.10;;;20.10;99.90;;;;;;5024668;28;20450;-78
2022/06/05 08:11:50;;;;;;;158.90;150.20;;;20.10;99.90;;;;;;5029598;28;20427;-78
2022/06/05 08:14:16;;;;;;;321.73;305.80;;;20.20;99.90;;;;;;5023413;28;20423;-78
2022/06/05 08:16:43;;;;;;;247.93;236.43;;;20.30;99.90;;;;;;5026979;28;20525;-79
2022/06/05 08:19:14;;;;;;;23.77;15.30;;;20.20;99.90;;;;;;5025467;28;20895;-77
2022/06/05 08:21:41;;;;;;;19.73;14.13;;;20.20;99.90;;;;;;5021990;28;20702;-78
2022/06/05 08:24:07;;;;;;;25.03;16.23;;;20.20;99.90;;;;;;5026736;28;20430;-79
2022/06/05 08:26:33;;;;;;;22.37;14.23;;;20.10;99.90;;;;;;5026677;28;20418;-79
2022/06/05 08:28:59;;;;;;;17.20;13.47;;;20.20;99.90;;;;;;5036250;28;20203;-79
2022/06/05 08:31:25;;;;;;;17.83;14.57;;;20.20;99.90;;;;;;5035297;28;20486;-79
2022/06/05 08:33:50;;;;;;;17.90;13.50;;;20.20;99.90;;;;;;5038418;28;20457;-79
2022/06/05 08:36:16;;;;;;;23.53;15.33;;;20.20;99.90;;;;;;5034424;28;20278;-79
2022/06/05 08:41:28;;;;;;;20.70;14.53;;;20.20;99.90;;;;;;5026878;28;20213;-78
2022/06/05 08:44:18;;;;;;;14.07;12.23;;;20.30;99.90;;;;;;5026606;28;20421;-77
2022/06/05 08:46:52;;;;;;;41.83;38.77;;;20.40;99.90;;;;;;5024543;28;20418;-76
2022/06/05 08:49:52;;;;;;;25.30;15.90;;;20.50;99.90;;;;;;5035951;28;20445;-80
2022/06/05 08:52:50;;;;;;;29.30;18.10;;;20.50;99.90;;;;;;5044538;28;20423;-77
2022/06/05 08:55:31;;;;;;;20.30;14.67;;;20.70;99.90;;;;;;5021840;28;20423;-78
2022/06/05 08:58:08;;;;;;;16.90;13.10;;;20.60;99.90;;;;;;5001561;28;20435;-77
2022/06/05 09:01:00;;;;;;;25.53;17.27;;;20.70;99.90;;;;;;5019683;28;20464;-77
2022/06/05 09:03:41;;;;;;;70.50;66.30;;;20.70;99.90;;;;;;5023076;28;20449;-79
2022/06/05 09:06:24;;;;;;;21.77;18.17;;;20.70;99.90;;;;;;5018468;28;20806;-77
2022/06/05 09:08:56;;;;;;;17.70;13.93;;;20.50;99.90;;;;;;5013497;28;20426;-77
2022/06/05 09:11:41;;;;;;;28.50;17.47;;;20.50;99.90;;;;;;5027899;28;20484;-80
2022/06/05 09:14:23;;;;;;;20.73;15.20;;;20.50;99.90;;;;;;5021704;28;20433;-77
2022/06/05 09:16:54;;;;;;;21.20;15.10;;;20.40;99.90;;;;;;5009182;28;20426;-79
2022/06/05 09:19:25;;;;;;;20.27;13.50;;;20.70;99.90;;;;;;5023193;28;20558;-78
2022/06/05 09:21:58;;;;;;;22.10;16.60;;;20.80;99.90;;;;;;5011392;28;20465;-79
2022/06/05 09:24:38;;;;;;;29.87;26.93;;;20.90;99.90;;;;;;5021457;28;20959;-78
2022/06/05 09:27:24;;;;;;;31.70;29.10;;;21.00;99.90;;;;;;5027541;28;20525;-78
2022/06/05 09:30:14;;;;;;;21.80;15.70;;;21.00;99.90;;;;;;5017316;28;20429;-79
2022/06/05 09:32:59;;;;;;;29.80;18.20;;;21.10;99.90;;;;;;5026223;28;20414;-78
2022/06/05 09:35:40;;;;;;;18.43;14.30;;;21.20;99.90;;;;;;5027664;28;20451;-79
2022/06/05 09:38:32;;;;;;;15.77;13.87;;;21.60;99.90;;;;;;5028008;28;20781;-78
2022/06/05 09:41:25;;;;;;;128.80;121.90;;;21.60;99.90;;;;;;5021850;28;20457;-79
2022/06/05 09:44:12;;;;;;;145.80;139.97;;;22.00;99.90;;;;;;5014468;28;20403;-77
2022/06/05 09:46:48;;;;;;;43.03;39.53;;;22.10;99.90;;;;;;5021577;28;20509;-77
2022/06/05 09:49:35;;;;;;;22.53;15.00;;;22.30;99.90;;;;;;5023477;28;20429;-77
2022/06/05 09:52:19;;;;;;;21.10;15.03;;;22.30;99.90;;;;;;5016609;28;20424;-77
2022/06/05 09:55:06;;;;;;;18.47;14.17;;;22.50;99.90;;;;;;5017893;28;20795;-77
2022/06/05 10:00:47;;;;;;;21.20;14.87;;;22.80;99.90;;;;;;5019927;28;20496;-77
2022/06/05 10:03:16;;;;;;;84.97;80.47;;;23.00;99.90;;;;;;5017737;28;20813;-77
2022/06/05 10:05:45;;;;;;;86.03;80.57;;;23.20;99.90;;;;;;5021552;28;20556;-76
2022/06/05 10:08:19;;;;;;;146.60;139.20;;;23.20;99.90;;;;;;5026453;28;20417;-77
2022/06/05 10:10:47;;;;;;;27.43;16.03;;;23.30;99.90;;;;;;5024518;28;20438;-78
2022/06/05 10:13:45;;;;;;;15.07;12.03;;;23.70;99.90;;;;;;5027137;28;20481;-78
2022/06/05 10:16:35;;;;;;;15.03;12.13;;;23.80;99.90;;;;;;5016803;28;20477;-76
2022/06/05 10:19:26;;;;;;;16.33;11.70;;;23.90;99.90;;;;;;5016307;28;20493;-78
2022/06/05 10:22:21;;;;;;;19.90;14.37;;;23.80;99.90;;;;;;5010190;28;20484;-78
2022/06/05 10:25:02;;;;;;;18.10;13.87;;;23.70;99.90;;;;;;5010837;28;20406;-77
2022/06/05 10:27:29;;;;;;;22.73;15.10;;;23.80;99.90;;;;;;5022360;28;20442;-79
2022/06/05 10:29:59;;;;;;;17.43;13.13;;;24.10;99.90;;;;;;5024839;28;20442;-77
2022/06/05 10:32:24;;;;;;;27.40;17.87;;;24.30;99.90;;;;;;5024804;28;20409;-77
2022/06/05 10:35:35;;;;;;;19.20;14.93;;;24.30;99.90;;;;;;5013662;28;20529;-76
2022/06/05 10:38:28;;;;;;;20.20;15.17;;;24.30;99.90;;;;;;5016296;28;20523;-78
2022/06/05 10:41:01;;;;;;;31.70;17.80;;;24.30;99.90;;;;;;5019468;28;20513;-77
2022/06/05 10:43:29;;;;;;;21.30;14.80;;;24.70;99.90;;;;;;5021967;28;20435;-77
2022/06/05 10:46:05;;;;;;;15.47;11.93;;;25.00;99.90;;;;;;5025115;28;20999;-77
2022/06/05 10:48:55;;;;;;;23.10;14.70;;;25.30;99.90;;;;;;5022444;28;20440;-79
2022/06/05 10:51:38;;;;;;;23.73;14.77;;;25.30;99.90;;;;;;5021892;28;20426;-78
2022/06/05 10:54:37;;;;;;;18.90;13.37;;;25.50;99.90;;;;;;5023880;28;20937;-78
2022/06/05 10:57:18;;;;;;;19.57;13.83;;;25.50;99.90;;;;;;5007672;28;20415;-78
2022/06/05 11:00:05;;;;;;;20.63;13.93;;;25.30;99.90;;;;;;5025855;28;20429;-78
2022/06/05 11:03:01;;;;;;;20.90;13.73;;;25.50;99.90;;;;;;5024957;28;20459;-78
2022/06/05 11:05:44;;;;;;;24.30;14.97;;;25.50;99.90;;;;;;5026143;28;20509;-78
2022/06/05 11:08:31;;;;;;;15.93;12.50;;;25.50;99.90;;;;;;5018460;28;20915;-79
2022/06/05 11:14:14;;;;;;;19.90;13.43;;;25.60;99.90;;;;;;5016910;28;20491;-77
2022/06/05 11:16:43;;;;;;;26.03;15.60;;;25.70;99.90;;;;;;5024005;28;20465;-77
2022/06/05 11:19:15;;;;;;;19.70;12.43;;;25.60;99.90;;;;;;5023307;28;20997;-79
2022/06/05 11:21:47;;;;;;;18.13;12.90;;;25.70;99.90;;;;;;5021157;28;20470;-78
2022/06/05 11:24:34;;;;;;;23.70;14.80;;;25.80;99.90;;;;;;5024727;28;20966;-78
2022/06/05 11:27:14;;;;;;;26.30;16.57;;;25.90;99.90;;;;;;5012872;28;20429;-78
2022/06/05 11:30:01;;;;;;;17.63;12.50;;;26.30;99.90;;;;;;5023147;28;20447;-77
2022/06/05 11:32:40;;;;;;;21.37;14.20;;;26.30;99.90;;;;;;5010884;28;20473;-76
2022/06/05 11:36:07;;;;;;;25.40;15.73;;;26.30;99.90;;;;;;5020931;28;20422;-77
2022/06/05 11:38:38;;;;;;;15.70;12.47;;;26.40;99.90;;;;;;4943535;28;20986;-77
2022/06/05 11:41:29;;;;;;;25.70;14.27;;;26.40;99.90;;;;;;4962554;28;20476;-76
2022/06/05 11:44:27;;;;;;;18.30;13.17;;;26.40;99.90;;;;;;4967193;28;20492;-78
2022/06/05 11:47:24;;;;;;;19.53;13.53;;;25.80;99.90;;;;;;4979049;28;20465;-78
2022/06/05 11:49:56;;;;;;;15.87;12.07;;;25.00;99.90;;;;;;4954011;28;20449;-78
2022/06/05 11:52:28;;;;;;;22.43;14.70;;;24.70;99.90;;;;;;4960782;28;20533;-78
2022/06/05 11:55:04;;;;;;;23.07;14.50;;;24.50;99.90;;;;;;4949276;28;20429;-79
2022/06/05 11:57:56;;;;;;;19.17;12.53;;;24.30;99.90;;;;;;4958531;28;20429;-79
2022/06/05 12:00:50;;;;;;;22.20;13.47;;;24.30;99.90;;;;;;4977364;28;20444;-78
2022/06/05 12:03:42;;;;;;;22.60;13.60;;;24.30;99.90;;;;;;4977715;28;20432;-77
2022/06/05 12:06:14;;;;;;;21.07;13.90;;;24.20;99.90;;;;;;4969202;28;20409;-80
2022/06/05 12:08:47;;;;;;;20.03;13.67;;;24.00;99.90;;;;;;4983578;28;20418;-78
2022/06/05 12:11:23;;;;;;;16.13;12.80;;;23.80;99.90;;;;;;5028330;28;20418;-80
2022/06/05 12:14:01;;;;;;;19.97;13.63;;;23.80;99.90;;;;;;5015078;28;20775;-77
2022/06/05 12:16:37;;;;;;;23.77;14.40;;;23.70;99.90;;;;;;5020875;28;20418;-78
2022/06/05 12:19:17;;;;;;;22.50;14.10;;;23.40;99.90;;;;;;5025625;28;20484;-78
2022/06/05 12:21:52;;;;;;;24.80;15.40;;;23.40;99.90;;;;;;5022895;28;20969;-77
2022/06/05 12:24:27;;;;;;;22.53;14.20;;;23.20;99.90;;;;;;5020988;28;20419;-78
2022/06/05 12:27:05;;;;;;;17.30;12.00;;;23.10;99.90;;;;;;5013498;28;20453;-78
2022/06/05 12:29:40;;;;;;;19.60;13.10;;;23.00;99.90;;;;;;5025536;28;20438;-78
2022/06/05 12:32:08;;;;;;;22.07;14.17;;;23.10;99.90;;;;;;5024484;28;20418;-78
2022/06/05 12:34:50;;;;;;;27.47;15.30;;;23.10;99.90;;;;;;5010351;28;20415;-78
2022/06/05 12:37:41;;;;;;;29.60;16.73;;;23.00;99.90;;;;;;5016506;28;20436;-79
2022/06/05 12:40:19;;;;;;;16.93;12.80;;;22.90;99.90;;;;;;5017816;28;20442;-78
2022/06/05 12:43:05;;;;;;;21.50;15.17;;;22.90;99.90;;;;;;5026313;28;20461;-78
2022/06/05 12:45:33;;;;;;;19.63;14.60;;;22.60;99.90;;;;;;5032173;28;20413;-77
2022/06/05 12:48:23;;;;;;;24.93;16.50;;;22.50;99.90;;;;;;5033013;28;20434;-78
2022/06/05 12:50:54;;;;;;;27.60;17.83;;;22.30;99.90;;;;;;5023437;28;20417;-76
2022/06/05 12:53:49;;;;;;;23.63;16.80;;;22.20;99.90;;;;;;5023415;28;20417;-78
2022/06/05 12:56:40;;;;;;;32.50;20.30;;;22.20;99.90;;;;;;5013150;28;20466;-79
2022/06/05 12:59:17;;;;;;;23.93;18.10;;;22.20;99.90;;;;;;5021567;28;20441;-78
2022/06/05 13:02:05;;;;;;;26.80;19.10;;;22.20;99.90;;;;;;5027680;28;20473;-78
2022/06/05 13:04:44;;;;;;;25.63;18.83;;;22.50;99.90;;;;;;5018526;28;20406;-78
2022/06/05 13:07:18;;;;;;;24.70;18.40;;;22.80;99.90;;;;;;5022968;28;20414;-79
2022/06/05 13:09:51;;;;;;;22.63;17.53;;;23.40;99.90;;;;;;5020736;28;20828;-78
2022/06/05 13:12:31;;;;;;;26.47;19.00;;;23.70;99.90;;;;;;5020421;28;20415;-79